Time;durP1;ratioP1;P1;durP2;ratioP2;P2;SDS_P1;SDS_P2;PMS_P1;PMS_P2;Temp;Humidity;BMP_temperature;BMP_pressure;BME280_temperature;BME280_humidity;BME280_pressure;Samples;Min_cycle;Max_cycle;Signal;HPM_P1;HPM_P2
2021/12/15 00:00:55;;;;;;;50.95;25.10;;;;;;;3.24;100.00;98220.91;5108807;27;20114;-88
2021/12/15 00:03:20;;;;;;;45.05;24.20;;;;;;;3.34;100.00;98235.66;5111973;27;20775;-87
2021/12/15 00:05:48;;;;;;;44.65;24.17;;;;;;;3.25;100.00;98218.25;5111141;27;20057;-87
2021/12/15 00:08:14;;;;;;;52.08;25.25;;;;;;;3.21;100.00;98207.75;5132997;27;20027;-90
2021/12/15 00:10:44;;;;;;;47.47;23.92;;;;;;;3.27;100.00;98240.22;5109329;27;20042;-91
2021/12/15 00:13:12;;;;;;;48.00;25.88;;;;;;;3.27;100.00;98234.06;5112913;27;20472;-90
2021/12/15 00:15:38;;;;;;;54.60;26.08;;;;;;;3.11;100.00;98228.22;5103981;28;20110;-91
2021/12/15 00:18:04;;;;;;;61.55;28.85;;;;;;;2.97;100.00;98214.47;5100144;28;20598;-88
2021/12/15 00:20:30;;;;;;;56.40;27.05;;;;;;;3.12;100.00;98250.25;5124602;27;20059;-90
2021/12/15 00:22:56;;;;;;;64.32;27.80;;;;;;;2.95;100.00;98223.31;5114180;27;20031;-90
2021/12/15 00:25:25;;;;;;;54.58;25.15;;;;;;;2.86;100.00;98212.94;5115138;28;20023;-89
2021/12/15 00:27:51;;;;;;;52.88;25.73;;;;;;;2.86;100.00;98208.50;5098342;28;20049;-91
2021/12/15 00:30:18;;;;;;;48.58;24.48;;;;;;;2.98;100.00;98223.25;5105721;28;20031;-90
2021/12/15 00:32:44;;;;;;;52.15;23.83;;;;;;;3.05;100.00;98224.84;5117162;28;20474;-90
2021/12/15 00:35:10;;;;;;;47.72;23.67;;;;;;;3.09;100.00;98230.03;5110090;28;20023;-91
2021/12/15 00:37:36;;;;;;;44.25;24.27;;;;;;;3.17;100.00;98232.50;5108893;28;20114;-90
2021/12/15 00:40:03;;;;;;;46.95;22.83;;;;;;;3.23;100.00;98240.34;5108127;28;20055;-89
2021/12/15 00:42:29;;;;;;;56.85;25.83;;;;;;;3.14;100.00;98232.56;5103655;28;20188;-91
2021/12/15 00:44:55;;;;;;;54.88;25.77;;;;;;;3.20;100.00;98243.00;5095980;28;20509;-89
2021/12/15 00:47:21;;;;;;;49.92;23.13;;;;;;;3.27;100.00;98237.56;5105024;28;20050;-90
2021/12/15 00:49:47;;;;;;;46.53;23.08;;;;;;;3.06;100.00;98218.66;5104742;28;20019;-90
2021/12/15 00:52:13;;;;;;;47.63;23.13;;;;;;;3.14;100.00;98232.56;5097771;28;20554;-90
2021/12/15 00:54:40;;;;;;;54.33;22.70;;;;;;;3.09;100.00;98229.16;5109547;28;20039;-90
2021/12/15 00:57:06;;;;;;;42.40;20.80;;;;;;;3.00;100.00;98197.66;5109825;28;20221;-89
2021/12/15 00:59:32;;;;;;;51.05;23.40;;;;;;;3.19;100.00;98218.38;5099863;28;20027;-91
2021/12/15 01:01:59;;;;;;;46.00;21.30;;;;;;;3.13;100.00;98199.16;5114079;28;20064;-90
2021/12/15 01:04:25;;;;;;;52.45;23.48;;;;;;;3.22;100.00;98214.78;5108257;28;20034;-90
2021/12/15 01:06:56;;;;;;;70.00;31.10;;;;;;;3.02;100.00;98172.94;5097655;28;20452;-90
2021/12/15 01:09:36;;;;;;;54.60;25.13;;;;;;;3.25;100.00;98206.78;5105803;28;20103;-90
2021/12/15 01:20:05;;;;;;;48.40;24.45;;;;;;;3.19;100.00;98204.28;5107178;28;20410;-90
2021/12/15 01:22:35;;;;;;;46.85;22.30;;;;;;;3.29;100.00;98219.06;5111916;28;20406;-90
2021/12/15 01:25:28;;;;;;;51.58;23.45;;;;;;;3.13;100.00;98205.31;5103425;28;20119;-91
2021/12/15 01:27:54;;;;;;;;;;;;;;;3.27;100.00;98218.19;5101956;28;20050;-90
2021/12/15 01:30:32;;;;;;;46.70;22.77;;;;;;;3.11;100.00;98199.16;5113023;28;19912;-91
2021/12/15 01:32:59;;;;;;;51.53;23.50;;;;;;;3.12;100.00;98203.56;5103678;28;20485;-90
2021/12/15 01:35:25;;;;;;;46.70;23.67;;;;;;;3.29;100.00;98222.53;5112493;28;20096;-90
2021/12/15 01:37:52;;;;;;;52.28;24.58;;;;;;;3.21;100.00;98197.19;5110656;28;20038;-90
2021/12/15 01:40:33;;;;;;;56.72;25.52;;;;;;;3.23;100.00;98198.88;5112366;27;20453;-90
2021/12/15 01:43:00;;;;;;;54.50;24.70;;;;;;;3.39;100.00;98217.91;5102444;27;20023;-90
2021/12/15 01:48:13;;;;;;;50.58;26.05;;;;;;;3.41;100.00;98212.59;5125997;27;20030;-91
2021/12/15 01:50:41;;;;;;;52.97;25.98;;;;;;;3.40;100.00;98219.66;5102513;27;20028;-89
2021/12/15 01:53:08;;;;;;;56.90;26.75;;;;;;;3.33;100.00;98201.31;5105386;28;20115;-89
2021/12/15 01:55:34;;;;;;;53.78;24.88;;;;;;;3.40;100.00;98211.72;5115760;27;20027;-89
2021/12/15 01:58:00;;;;;;;45.97;22.95;;;;;;;3.31;100.00;98203.13;5105112;27;20106;-90
2021/12/15 02:00:34;;;;;;;53.55;23.83;;;;;;;3.33;100.00;98201.31;5119970;27;20034;-89
2021/12/15 02:02:59;;;;;;;45.97;22.55;;;;;;;3.22;100.00;98193.66;5107922;28;20035;-90
2021/12/15 02:05:29;;;;;;;42.78;21.13;;;;;;;3.17;100.00;98206.06;5107740;28;20054;-90
2021/12/15 02:07:55;;;;;;;44.05;22.30;;;;;;;3.31;100.00;98208.44;5098907;27;20038;-91
2021/12/15 02:10:25;;;;;;;44.67;21.60;;;;;;;3.23;100.00;98200.69;5100516;28;20039;-90
2021/12/15 02:12:51;;;;;;;40.80;20.85;;;;;;;3.24;100.00;98202.41;5109281;27;20035;-90
2021/12/15 02:15:23;;;;;;;47.92;20.77;;;;;;;3.04;100.00;98197.59;5111083;28;20470;-89
2021/12/15 02:17:49;;;;;;;42.00;20.20;;;;;;;2.91;100.00;98182.00;5109984;27;20595;-91
2021/12/15 02:20:16;;;;;;;45.50;21.70;;;;;;;3.09;100.00;98205.38;5111100;27;20056;-91
2021/12/15 02:22:43;;;;;;;46.22;21.80;;;;;;;2.93;100.00;98186.34;5116095;27;20466;-90
2021/12/15 02:25:12;;;;;;;40.25;20.63;;;;;;;2.93;100.00;98190.75;5101349;28;20047;-90
2021/12/15 02:27:38;;;;;;;42.13;20.35;;;;;;;2.96;100.00;98188.06;5107399;27;20030;-90
2021/12/15 02:30:50;;;;;;;47.50;21.52;;;;;;;2.76;100.00;98156.81;5116603;27;20041;-90
2021/12/15 02:38:24;;;;;;;42.42;20.70;;;;;;;2.96;100.00;98202.13;5111897;27;20034;-90
2021/12/15 02:40:50;;;;;;;41.67;20.60;;;;;;;2.89;100.00;98192.59;5100547;28;20050;-90
2021/12/15 02:43:16;;;;;;;39.95;20.45;;;;;;;2.91;100.00;98200.50;5099334;28;20031;-89
2021/12/15 02:45:41;;;;;;;44.05;20.23;;;;;;;2.86;100.00;98205.88;5106640;27;20367;-89
2021/12/15 02:48:07;;;;;;;39.85;20.15;;;;;;;2.60;100.00;98169.44;5103242;27;20039;-90
2021/12/15 02:50:36;;;;;;;47.25;21.85;;;;;;;2.57;100.00;98174.78;5109627;27;20058;-89
2021/12/15 02:53:05;;;;;;;45.47;22.17;;;;;;;2.68;100.00;98188.63;5108552;27;20028;-89
2021/12/15 02:55:30;;;;;;;43.72;20.38;;;;;;;2.87;100.00;98202.34;5102501;28;20035;-89
2021/12/15 02:57:57;;;;;;;45.90;20.90;;;;;;;2.70;100.00;98178.06;5108258;27;20500;-90
2021/12/15 03:00:27;;;;;;;46.13;20.60;;;;;;;2.87;100.00;98197.06;5114992;27;20083;-89
2021/12/15 03:05:49;;;;;;;43.38;20.88;;;;;;;2.77;100.00;98179.66;5133428;27;20030;-90
2021/12/15 03:08:19;;;;;;;47.92;22.35;;;;;;;2.96;100.00;98211.84;5106402;27;20023;-89
2021/12/15 03:16:21;;;;;;;40.45;20.35;;;;;;;3.07;100.00;98204.56;5109364;27;20039;-90
2021/12/15 03:18:46;;;;;;;41.65;20.30;;;;;;;3.00;100.00;98197.66;5106950;28;20478;-89
2021/12/15 03:21:21;;;;;;;40.08;18.90;;;;;;;3.06;100.00;98218.66;5124076;27;20546;-90
2021/12/15 03:23:52;;;;;;;37.80;18.40;;;;;;;3.06;100.00;98213.38;5107279;28;20114;-89
2021/12/15 03:26:23;;;;;;;39.45;18.15;;;;;;;2.96;100.00;98198.63;5097355;28;20426;-89
2021/12/15 03:34:48;;;;;;;41.00;18.77;;;;;;;2.81;100.00;98197.19;5117721;27;20103;-89
2021/12/15 03:37:26;;;;;;;47.30;20.92;;;;;;;2.97;100.00;98210.94;5125550;27;20627;-91
2021/12/15 03:39:59;;;;;;;43.45;20.35;;;;;;;2.92;100.00;98205.78;5109541;27;20027;-89
2021/12/15 03:42:34;;;;;;;41.75;19.75;;;;;;;2.96;100.00;98203.91;5107038;28;20034;-89
2021/12/15 03:45:01;;;;;;;40.53;19.33;;;;;;;2.96;100.00;98194.22;5105669;27;20047;-90
2021/12/15 03:47:30;;;;;;;39.92;19.23;;;;;;;3.11;100.00;98217.66;5107751;27;20020;-89
2021/12/15 03:49:57;;;;;;;41.88;18.73;;;;;;;3.07;100.00;98212.50;5104515;27;20075;-87
2021/12/15 03:52:23;;;;;;;40.00;19.27;;;;;;;3.09;100.00;98208.91;5109704;27;20031;-89
2021/12/15 03:54:49;;;;;;;53.67;22.33;;;;;;;3.08;100.00;98208.94;5110338;27;20023;-88
2021/12/15 03:57:15;;;;;;;50.13;22.90;;;;;;;3.16;100.00;98225.50;5105063;27;20042;-89
2021/12/15 03:59:43;;;;;;;47.55;21.80;;;;;;;3.07;100.00;98194.88;5106326;27;20030;-89
2021/12/15 04:02:18;;;;;;;48.33;23.20;;;;;;;3.07;100.00;98207.22;5114437;27;20060;-89
2021/12/15 04:04:45;;;;;;;42.65;19.58;;;;;;;2.90;100.00;98204.03;5103429;28;20059;-89
2021/12/15 04:07:11;;;;;;;51.17;20.90;;;;;;;2.83;100.00;98205.94;5123854;27;20068;-89
2021/12/15 04:09:37;;;;;;;42.92;19.60;;;;;;;2.89;100.00;98215.53;5095958;28;20103;-89
2021/12/15 04:12:03;;;;;;;45.40;19.65;;;;;;;2.88;100.00;98217.28;5104815;27;20050;-90
2021/12/15 04:14:41;;;;;;;43.13;20.30;;;;;;;2.63;100.00;98203.72;5110276;28;20024;-89
2021/12/15 04:17:17;;;;;;;39.90;17.85;;;;;;;2.58;100.00;98216.16;5113588;27;20038;-89
2021/12/15 04:19:43;;;;;;;40.40;19.63;;;;;;;2.42;100.00;98196.22;5113785;28;20027;-90
2021/12/15 04:22:09;;;;;;;49.55;20.40;;;;;;;2.49;100.00;98211.03;5096709;28;20471;-89
2021/12/15 04:24:35;;;;;;;45.40;20.10;;;;;;;2.59;100.00;98228.44;5102341;27;20127;-89
2021/12/15 04:27:01;;;;;;;42.92;20.75;;;;;;;2.43;100.00;98207.66;5125003;27;20173;-90
2021/12/15 04:29:28;;;;;;;46.45;21.77;;;;;;;2.57;100.00;98235.53;5111067;28;20019;-90
2021/12/15 04:32:03;;;;;;;53.65;22.05;;;;;;;2.64;100.00;98229.22;5105938;28;20053;-91
2021/12/15 04:34:29;;;;;;;49.20;20.70;;;;;;;2.53;100.00;98210.06;5103049;27;20026;-90
2021/12/15 04:36:55;;;;;;;47.03;21.60;;;;;;;2.61;100.00;98210.81;5110348;28;20554;-89
2021/12/15 04:39:27;;;;;;;48.45;22.00;;;;;;;2.67;100.00;98226.53;5106213;28;20382;-90
2021/12/15 04:41:57;;;;;;;;;;;;;;;2.84;100.00;98243.78;5098865;28;20444;-89
2021/12/15 04:44:29;;;;;;;47.05;21.40;;;;;;;2.83;100.00;98250.00;5105749;28;19970;-90
2021/12/15 04:47:00;;;;;;;;;;;;;;;2.91;100.00;98250.69;5108878;28;20125;-90
2021/12/15 04:49:29;;;;;;;50.63;23.83;;;;;;;2.65;100.00;98238.88;5110180;28;19908;-90
2021/12/15 04:51:54;;;;;;;55.50;24.20;;;;;;;2.48;100.00;98248.91;5100740;28;20015;-91
2021/12/15 04:54:20;;;;;;;55.72;24.83;;;;;;;2.34;100.00;98242.16;5108314;28;20016;-90
2021/12/15 04:56:47;;;;;;;56.08;25.35;;;;;;;2.55;100.00;98257.59;5105252;28;20445;-90
2021/12/15 04:59:14;;;;;;;58.95;25.85;;;;;;;2.42;100.00;98240.22;5112889;28;20027;-90
2021/12/15 05:01:39;;;;;;;59.30;25.55;;;;;;;2.52;100.00;98225.97;5114187;28;20024;-89
2021/12/15 05:04:05;;;;;;;60.40;26.42;;;;;;;2.81;100.00;98265.84;5115262;28;20019;-91
2021/12/15 05:06:31;;;;;;;56.80;26.17;;;;;;;2.71;100.00;98246.69;5107255;28;20028;-90
2021/12/15 05:08:57;;;;;;;67.45;27.35;;;;;;;2.74;100.00;98236.06;5100481;28;20038;-90
2021/12/15 05:11:23;;;;;;;61.67;27.80;;;;;;;2.63;100.00;98218.69;5114585;28;20486;-89
2021/12/15 05:13:48;;;;;;;59.22;27.38;;;;;;;2.78;100.00;98241.28;5113792;28;20031;-89
2021/12/15 05:16:16;;;;;;;69.03;32.60;;;;;;;2.84;100.00;98254.34;5103034;27;20031;-89
2021/12/15 05:18:43;;;;;;;67.43;30.08;;;;;;;2.90;100.00;98256.88;5109224;27;20094;-90
2021/12/15 05:21:10;;;;;;;63.78;29.55;;;;;;;2.82;100.00;98243.84;5114243;27;20034;-90
2021/12/15 05:23:36;;;;;;;94.25;44.22;;;;;;;2.78;100.00;98263.28;5101813;27;20027;-90
2021/12/15 05:26:03;;;;;;;70.90;31.75;;;;;;;2.78;100.00;98249.19;5104586;28;20035;-90
2021/12/15 05:28:29;;;;;;;63.97;26.83;;;;;;;2.79;100.00;98245.66;5117077;28;20034;-87
2021/12/15 05:30:56;;;;;;;67.30;29.50;;;;;;;2.83;100.00;98252.63;5122399;27;20023;-91
2021/12/15 05:33:25;;;;;;;61.38;30.38;;;;;;;2.90;100.00;98248.94;5123598;27;20076;-92
2021/12/15 05:35:51;;;;;;;72.07;30.52;;;;;;;2.50;100.00;98186.38;5110144;27;20023;-92
2021/12/15 05:38:18;;;;;;;62.22;27.23;;;;;;;2.80;100.00;98228.94;5095002;28;20118;-89
2021/12/15 05:40:58;;;;;;;55.88;26.05;;;;;;;2.80;100.00;98231.56;5099644;27;20134;-91
2021/12/15 05:43:24;;;;;;;58.17;25.92;;;;;;;2.60;100.00;98218.75;5114130;28;20042;-83
2021/12/15 05:46:05;;;;;;;62.17;27.65;;;;;;;2.52;100.00;98196.91;5133096;27;20418;-90
2021/12/15 05:49:02;;;;;;;197.00;60.83;;;;;;;2.72;100.00;98258.13;5113495;27;20031;-90
2021/12/15 05:51:50;;;;;;;54.92;25.58;;;;;;;2.55;100.00;98237.31;5104216;28;20059;-90
2021/12/15 05:54:17;;;;;;;58.95;27.80;;;;;;;2.46;100.00;98219.00;5111499;28;20058;-89
2021/12/15 05:56:43;;;;;;;69.80;31.38;;;;;;;2.46;100.00;98224.28;5118194;27;20027;-89
2021/12/15 05:59:09;;;;;;;61.97;27.73;;;;;;;2.59;100.00;98275.97;5115519;28;20081;-89
2021/12/15 06:01:37;;;;;;;69.95;30.42;;;;;;;2.30;100.00;98224.63;5099307;28;20482;-90
2021/12/15 06:04:05;;;;;;;80.95;36.78;;;;;;;2.38;100.00;98239.41;5102572;27;20110;-88
2021/12/15 06:06:34;;;;;;;85.45;35.72;;;;;;;2.62;100.00;98278.53;5113233;28;20038;-89
2021/12/15 06:09:04;;;;;;;93.63;38.60;;;;;;;2.66;100.00;98260.88;5099508;28;20036;-89
2021/12/15 06:11:32;;;;;;;95.80;43.40;;;;;;;2.44;100.00;98225.22;5098005;28;20398;-88
2021/12/15 06:14:02;;;;;;;79.80;37.00;;;;;;;2.60;100.00;98245.16;5108758;27;20027;-87
2021/12/15 06:16:28;;;;;;;67.40;29.92;;;;;;;2.48;100.00;98224.28;5106557;28;20034;-88
2021/12/15 06:18:53;;;;;;;105.70;47.58;;;;;;;2.49;100.00;98226.88;5105315;27;20023;-89
2021/12/15 06:21:21;;;;;;;100.65;42.55;;;;;;;2.65;100.00;98248.56;5113666;28;20030;-87
2021/12/15 06:23:48;;;;;;;106.05;45.95;;;;;;;2.66;100.00;98251.19;5113532;27;20038;-88
2021/12/15 06:26:14;;;;;;;131.52;54.08;;;;;;;2.70;100.00;98246.72;5116807;27;20034;-89
2021/12/15 06:28:40;;;;;;;90.90;38.70;;;;;;;2.72;100.00;98244.91;5099221;28;20114;-89
2021/12/15 06:31:09;;;;;;;87.95;37.25;;;;;;;2.76;100.00;98265.09;5103672;27;20055;-90
2021/12/15 06:33:40;;;;;;;91.03;41.55;;;;;;;2.58;100.00;98239.91;5116801;28;20061;-90
2021/12/15 06:36:08;;;;;;;79.07;35.20;;;;;;;2.54;100.00;98256.72;5080993;27;20071;-90
2021/12/15 06:38:40;;;;;;;92.50;41.15;;;;;;;2.91;100.00;98299.13;5119302;27;20507;-90
2021/12/15 06:41:08;;;;;;;90.63;39.80;;;;;;;2.84;100.00;98289.56;5110563;28;20027;-89
2021/12/15 06:43:39;;;;;;;90.47;36.40;;;;;;;2.82;100.00;98309.88;5099678;28;20491;-89
2021/12/15 06:59:33;;;;;;;71.50;31.38;;;;;;;2.77;100.00;98322.28;5100562;28;20038;-82
2021/12/15 07:02:00;;;;;;;73.78;31.08;;;;;;;2.67;100.00;98296.97;5117077;27;20027;-91
2021/12/15 07:04:26;;;;;;;73.50;31.33;;;;;;;2.34;100.00;98258.81;5122679;27;20076;-92
2021/12/15 07:06:52;;;;;;;77.70;34.10;;;;;;;2.76;100.00;98315.28;5121562;27;20038;-82
2021/12/15 07:09:19;;;;;;;59.63;27.65;;;;;;;2.32;100.00;98258.00;5118886;27;20179;-88
2021/12/15 07:11:44;;;;;;;76.22;31.95;;;;;;;2.67;100.00;98313.69;5136238;27;20175;-89
2021/12/15 07:14:10;;;;;;;72.43;29.92;;;;;;;2.53;100.00;98281.34;5105601;27;20118;-90
2021/12/15 07:16:41;;;;;;;80.25;32.95;;;;;;;2.28;100.00;98258.09;5109103;28;20043;-89
2021/12/15 07:25:47;;;;;;;81.20;37.70;;;;;;;2.01;100.00;98256.78;5077051;28;20152;-90
2021/12/15 07:28:46;;;;;;;70.03;30.70;;;;;;;1.97;100.00;98270.94;5099322;28;20119;-91
2021/12/15 07:31:40;;;;;;;72.07;29.38;;;;;;;2.27;100.00;98315.28;5088823;28;20476;-91
2021/12/15 07:40:49;;;;;;;52.50;21.05;;;;;;;2.24;100.00;98341.72;5093906;28;20030;-91
2021/12/15 07:43:24;;;;;;;63.03;21.63;;;;;;;2.22;100.00;98356.69;5061348;28;20024;-91
2021/12/15 07:46:01;;;;;;;52.63;21.63;;;;;;;1.86;100.00;98313.28;5085154;27;20049;-90
2021/12/15 07:48:30;;;;;;;57.05;21.45;;;;;;;2.00;100.00;98347.38;5096781;27;20114;-90
2021/12/15 07:50:58;;;;;;;87.65;37.55;;;;;;;2.13;100.00;98360.34;5099498;27;20130;-88
2021/12/15 07:53:27;;;;;;;42.17;19.42;;;;;;;2.01;100.00;98346.47;5098974;27;20023;-91
2021/12/15 07:55:56;;;;;;;45.85;18.45;;;;;;;1.99;100.00;98340.34;5102281;27;20033;-90
2021/12/15 07:58:22;;;;;;;42.35;19.92;;;;;;;2.10;100.00;98339.28;5105575;27;20050;-89
2021/12/15 08:00:49;;;;;;;53.35;21.55;;;;;;;1.88;100.00;98292.16;5118670;27;20092;-91
2021/12/15 08:03:16;;;;;;;50.55;21.95;;;;;;;2.27;100.00;98361.91;5117811;27;20034;-89
2021/12/15 08:06:18;;;;;;;49.53;20.55;;;;;;;2.34;100.00;98384.69;5118568;27;20023;-90
2021/12/15 08:08:44;;;;;;;50.17;21.17;;;;;;;2.06;100.00;98340.22;5121418;27;20045;-92
2021/12/15 08:11:11;;;;;;;56.78;24.08;;;;;;;2.27;100.00;98367.19;5119421;27;20031;-92
2021/12/15 08:13:37;;;;;;;56.70;22.30;;;;;;;2.52;100.00;98385.22;5119676;27;20047;-92
2021/12/15 08:16:04;;;;;;;52.85;22.23;;;;;;;2.40;100.00;98379.28;5119918;27;20114;-91
2021/12/15 08:18:30;;;;;;;59.50;24.00;;;;;;;2.34;100.00;98353.00;5118501;27;20062;-92
2021/12/15 08:20:56;;;;;;;58.30;24.48;;;;;;;2.42;100.00;98356.38;5118028;27;20027;-90
2021/12/15 08:23:23;;;;;;;61.20;24.67;;;;;;;2.47;100.00;98381.78;5118652;27;20475;-90
2021/12/15 08:25:49;;;;;;;58.55;25.08;;;;;;;2.35;100.00;98366.16;5118590;27;20023;-91
2021/12/15 08:28:15;;;;;;;59.50;25.75;;;;;;;2.53;100.00;98392.25;5118109;28;20023;-90
2021/12/15 08:30:42;;;;;;;57.85;24.58;;;;;;;2.34;100.00;98359.13;5118455;28;20118;-89
2021/12/15 08:33:14;;;;;;;52.50;22.77;;;;;;;2.25;100.00;98348.72;5118230;27;20023;-91
2021/12/15 08:35:44;;;;;;;52.15;23.33;;;;;;;2.33;100.00;98364.44;5118661;27;20164;-90
2021/12/15 08:45:00;;;;;;;54.97;23.30;;;;;;;2.09;100.00;98337.53;5115141;28;20065;-91
2021/12/15 08:47:26;;;;;;;70.90;27.83;;;;;;;2.59;100.00;98401.84;5083129;28;20038;-91
2021/12/15 08:49:53;;;;;;;56.47;23.10;;;;;;;2.30;100.00;98341.63;5083576;28;20024;-93
2021/12/15 08:52:22;;;;;;;43.67;21.65;;;;;;;2.19;100.00;98322.44;5102965;28;20043;-91
2021/12/15 08:54:48;;;;;;;57.85;23.10;;;;;;;2.50;100.00;98362.38;5084706;28;20032;-91
2021/12/15 08:57:14;;;;;;;55.63;22.55;;;;;;;2.28;100.00;98322.28;5085428;28;20528;-90
2021/12/15 08:59:59;;;;;;;47.47;20.50;;;;;;;2.33;100.00;98332.78;5085965;28;20119;-92
2021/12/15 09:02:38;;;;;;;;;;;;;;;;;;;;;
2021/12/15 09:05:22;;;;;;;;;;;;;;;;;;;;;
2021/12/15 09:07:54;;;;;;;42.15;19.73;;;;;;;2.74;100.00;98354.91;5103713;28;20106;-92
2021/12/15 09:10:22;;;;;;;35.38;16.80;;;;;;;2.82;100.00;98360.06;5084341;28;20058;-91
2021/12/15 09:12:48;;;;;;;48.92;22.23;;;;;;;2.78;100.00;98341.66;5084061;28;20063;-92
2021/12/15 09:15:14;;;;;;;48.63;21.17;;;;;;;3.11;100.00;98404.41;5084798;28;20019;-91
2021/12/15 09:17:41;;;;;;;51.60;19.40;;;;;;;2.71;100.00;98348.81;5083037;28;20139;-90
2021/12/15 09:20:09;;;;;;;43.00;19.83;;;;;;;2.65;100.00;98352.44;5083656;28;20027;-92
2021/12/15 09:22:36;;;;;;;47.72;20.42;;;;;;;2.86;100.00;98371.44;5076071;28;20107;-87
2021/12/15 09:25:06;;;;;;;56.38;23.55;;;;;;;2.80;100.00;98359.19;5092472;28;20027;-90
2021/12/15 09:27:31;;;;;;;106.40;51.45;;;;;;;2.83;100.00;98397.91;5107263;27;20127;-90
2021/12/15 09:29:57;;;;;;;96.72;41.60;;;;;;;2.61;100.00;98371.88;5104622;28;20514;-89
2021/12/15 09:32:23;;;;;;;80.80;37.63;;;;;;;2.68;100.00;98375.25;5112878;28;20021;-91
2021/12/15 09:34:53;;;;;;;73.85;35.05;;;;;;;2.84;100.00;98387.31;5115037;27;20027;-90
2021/12/15 09:37:19;;;;;;;70.20;33.97;;;;;;;2.68;100.00;98348.84;5120160;27;20019;-91
2021/12/15 09:39:45;;;;;;;56.38;25.80;;;;;;;2.79;100.00;98340.75;5107073;28;20028;-90
2021/12/15 09:42:12;;;;;;;60.20;25.38;;;;;;;3.10;100.00;98376.28;5129947;27;20023;-90
2021/12/15 09:44:38;;;;;;;62.50;27.20;;;;;;;2.82;100.00;98349.50;5129008;27;20042;-91
2021/12/15 09:47:40;;;;;;;67.35;29.40;;;;;;;2.51;100.00;98316.63;5095299;28;20158;-91
2021/12/15 10:04:12;;;;;;;56.58;25.80;;;;;;;3.19;100.00;98392.84;5096242;28;20431;-90
2021/12/15 10:12:20;;;;;;;67.45;30.08;;;;;;;3.25;100.00;98384.78;5104255;27;20083;-89
2021/12/15 10:17:54;;;;;;;73.82;35.10;;;;;;;3.27;100.00;98367.09;5135481;27;20030;-90
2021/12/15 10:20:24;;;;;;;84.40;37.50;;;;;;;3.18;100.00;98345.25;5111233;28;20406;-90
2021/12/15 10:22:56;;;;;;;65.53;29.20;;;;;;;3.16;100.00;98341.78;5098938;28;20118;-89
2021/12/15 10:25:43;;;;;;;48.30;22.35;;;;;;;3.49;100.00;98380.75;5099053;28;20176;-89
2021/12/15 10:28:11;;;;;;;59.58;26.55;;;;;;;3.27;100.00;98339.78;5098900;28;20397;-90
2021/12/15 10:30:43;;;;;;;59.03;27.88;;;;;;;3.53;100.00;98369.22;5098455;27;20034;-87
2021/12/15 10:33:25;;;;;;;46.72;23.35;;;;;;;3.53;100.00;98366.59;5112959;27;20031;-87
2021/12/15 10:36:02;;;;;;;53.88;25.95;;;;;;;3.31;100.00;98325.63;5120377;27;20035;-90
2021/12/15 10:38:41;;;;;;;72.72;31.85;;;;;;;3.61;100.00;98363.75;5119130;27;20133;-91
2021/12/15 10:41:10;;;;;;;61.65;28.33;;;;;;;3.65;100.00;98358.38;5137358;27;20430;-90
2021/12/15 10:44:21;;;;;;;54.00;21.73;;;;;;;3.61;100.00;98350.53;5135465;27;20031;-87
2021/12/15 10:46:59;;;;;;;44.13;18.95;;;;;;;3.48;100.00;98323.47;5016764;28;20032;-87
2021/12/15 10:49:31;;;;;;;41.97;18.77;;;;;;;3.72;100.00;98333.53;5018063;28;20028;-88
2021/12/15 10:51:58;;;;;;;48.70;22.83;;;;;;;3.87;100.00;98336.75;5080496;28;20035;-92
2021/12/15 10:54:44;;;;;;;57.25;24.20;;;;;;;3.76;100.00;98321.09;5116271;28;20114;-93
2021/12/15 10:57:16;;;;;;;44.28;18.75;;;;;;;3.74;100.00;98337.03;5101300;28;20053;-92
2021/12/15 10:59:44;;;;;;;35.53;16.90;;;;;;;3.91;100.00;98362.25;5099689;28;20027;-92
2021/12/15 11:02:18;;;;;;;41.13;18.52;;;;;;;3.88;100.00;98355.22;5098624;28;20280;-91
2021/12/15 11:04:44;;;;;;;35.78;17.60;;;;;;;3.92;100.00;98351.59;5095831;28;20024;-87
2021/12/15 11:07:57;;;;;;;43.50;20.52;;;;;;;3.85;100.00;98355.28;5117900;28;20103;-91
2021/12/15 11:10:31;;;;;;;;;;;;;;;3.73;100.00;98359.06;5048054;28;20037;-87
2021/12/15 11:13:45;;;;;;;39.35;18.58;;;;;;;3.56;100.00;98353.28;5115014;27;19918;-89
2021/12/15 11:16:17;;;;;;;42.92;19.60;;;;;;;3.47;100.00;98340.28;5106408;28;20027;-82
2021/12/15 11:18:52;;;;;;;54.50;23.53;;;;;;;3.26;100.00;98296.63;5121859;27;20027;-85
2021/12/15 11:21:26;;;;;;;49.65;21.90;;;;;;;3.19;100.00;98299.44;5103098;28;20057;-90
2021/12/15 11:27:15;;;;;;;64.80;28.17;;;;;;;3.24;100.00;98311.66;5117298;28;20050;-87
2021/12/15 11:29:42;;;;;;;66.10;25.70;;;;;;;3.48;100.00;98328.75;5070262;28;20043;-89
2021/12/15 11:32:41;;;;;;;61.92;27.77;;;;;;;3.51;100.00;98349.84;5061191;28;20028;-81
2021/12/15 11:35:15;;;;;;;64.10;27.48;;;;;;;3.37;100.00;98357.22;5056087;28;20036;-82
2021/12/15 11:38:04;;;;;;;58.58;24.27;;;;;;;3.24;100.00;98334.56;5071276;28;20028;-88
2021/12/15 11:40:39;;;;;;;50.08;24.15;;;;;;;3.19;100.00;98300.31;5078934;28;20410;-88
2021/12/15 11:43:06;;;;;;;62.40;29.38;;;;;;;3.56;100.00;98318.91;5060082;28;20056;-88
2021/12/15 11:45:32;;;;;;;69.88;29.20;;;;;;;3.53;100.00;98311.03;5058496;28;20051;-88
2021/12/15 11:48:18;;;;;;;57.67;27.75;;;;;;;3.56;100.00;98295.13;5061675;28;20073;-86
2021/12/15 11:50:47;;;;;;;59.40;27.23;;;;;;;3.64;100.00;98295.81;5058915;28;20122;-87
2021/12/15 11:53:43;;;;;;;50.20;23.33;;;;;;;4.07;100.00;98319.50;5059056;28;20028;-88
2021/12/15 11:56:20;;;;;;;53.33;23.33;;;;;;;4.22;100.00;98323.53;5050504;28;20032;-88
2021/12/15 11:58:46;;;;;;;42.05;19.65;;;;;;;4.08;100.00;98304.47;5058373;28;20030;-89
2021/12/15 12:01:40;;;;;;;46.60;19.95;;;;;;;4.35;100.00;98298.50;5065542;28;20028;-88
2021/12/15 12:04:34;;;;;;;41.65;19.05;;;;;;;4.48;100.00;98277.88;5099551;28;20071;-89
2021/12/15 12:07:35;;;;;;;50.15;20.30;;;;;;;4.52;100.00;98285.72;5090017;28;20089;-89
2021/12/15 12:10:09;;;;;;;46.13;19.33;;;;;;;4.72;100.00;98299.28;5092171;28;20031;-88
2021/12/15 12:12:47;;;;;;;36.55;19.38;;;;;;;4.75;100.00;98295.69;5090409;27;20023;-80
2021/12/15 12:15:14;;;;;;;157.88;54.47;;;;;;;4.74;100.00;98270.97;5134564;27;20028;-89
2021/12/15 12:17:42;;;;;;;39.05;17.63;;;;;;;4.56;100.00;98270.59;5110451;27;20037;-88
2021/12/15 12:20:24;;;;;;;34.00;15.75;;;;;;;4.64;100.00;98295.13;5108623;28;20363;-90
2021/12/15 12:22:51;;;;;;;32.83;13.65;;;;;;;4.74;100.00;98292.16;5105099;27;20465;-88
2021/12/15 12:25:21;;;;;;;45.05;18.73;;;;;;;4.59;100.00;98271.38;5116347;27;20474;-90
2021/12/15 12:27:48;;;;;;;40.33;19.40;;;;;;;4.51;100.00;98289.25;5116493;27;20482;-90
2021/12/15 12:30:18;;;;;;;36.70;17.20;;;;;;;4.39;100.00;98252.50;5117319;27;20027;-90
2021/12/15 12:32:45;;;;;;;40.75;18.55;;;;;;;4.42;100.00;98251.56;5117802;28;20027;-90
2021/12/15 12:35:12;;;;;;;38.80;18.25;;;;;;;4.42;100.00;98275.38;5117155;27;20122;-90
2021/12/15 12:37:38;;;;;;;37.22;17.75;;;;;;;4.06;100.00;98248.06;5120329;28;20068;-91
2021/12/15 12:40:23;;;;;;;35.78;17.50;;;;;;;4.57;100.00;98286.44;5123404;28;20038;-91
2021/12/15 12:42:49;;;;;;;33.58;15.48;;;;;;;4.52;100.00;98301.59;5118720;28;20034;-91
2021/12/15 12:45:26;;;;;;;34.47;14.93;;;;;;;4.57;100.00;98327.97;5122508;28;20101;-92
2021/12/15 12:48:13;;;;;;;31.00;14.65;;;;;;;4.13;100.00;98254.94;5115814;28;20055;-92
2021/12/15 13:03:00;;;;;;;26.65;12.52;;;;;;;4.71;98.10;98313.44;5114415;28;20080;-89
2021/12/15 13:05:49;;;;;;;25.08;11.52;;;;;;;4.48;98.76;98309.66;5096394;28;20061;-90
2021/12/15 13:08:40;;;;;;;26.75;12.43;;;;;;;4.49;99.63;98340.53;5112173;28;20023;-89
2021/12/15 13:14:37;;;;;;;25.88;11.73;;;;;;;4.28;100.00;98296.91;5114361;28;20529;-88
2021/12/15 13:17:18;;;;;;;23.60;11.70;;;;;;;4.38;100.00;98314.31;5095718;28;20027;-88
2021/12/15 13:19:44;;;;;;;22.13;11.15;;;;;;;4.37;99.68;98318.72;5095938;28;20456;-88
2021/12/15 13:22:42;;;;;;;22.77;11.73;;;;;;;4.08;100.00;98299.19;5096943;28;20027;-89
2021/12/15 13:31:03;;;;;;;23.70;11.15;;;;;;;4.19;100.00;98350.09;5112627;28;20176;-90